createdAt,value
2018-09-08T00:01:42.641Z,13.30
2018-09-08T00:04:10.722Z,13.20
2018-09-08T00:06:38.776Z,13.20
2018-09-08T00:09:08.402Z,13.30
2018-09-08T00:11:36.557Z,13.30
2018-09-08T00:14:04.810Z,13.30
2018-09-08T00:16:38.343Z,13.30
2018-09-08T00:19:11.902Z,13.30
2018-09-08T00:21:45.397Z,13.30
2018-09-08T00:24:18.862Z,13.20
2018-09-08T00:26:46.241Z,13.30
2018-09-08T00:29:19.810Z,13.20
2018-09-08T00:31:47.870Z,13.10
2018-09-08T00:34:15.913Z,13.00
2018-09-08T00:36:43.974Z,13.00
2018-09-08T00:39:12.065Z,13.00
2018-09-08T00:41:40.138Z,13.00
2018-09-08T00:44:08.178Z,12.90
2018-09-08T00:46:36.242Z,12.90
2018-09-08T00:49:04.306Z,12.80
2018-09-08T00:51:32.354Z,12.80
2018-09-08T00:54:00.571Z,12.80
2018-09-08T00:56:28.806Z,12.80
2018-09-08T00:59:04.022Z,12.80
2018-09-08T01:01:33.209Z,12.70
2018-09-08T01:04:01.261Z,12.60
2018-09-08T01:06:29.328Z,12.60
2018-09-08T01:08:57.386Z,12.60
2018-09-08T01:11:25.642Z,12.60
2018-09-08T01:13:53.723Z,12.60
2018-09-08T01:16:22.270Z,12.60
2018-09-08T01:18:50.366Z,12.70
2018-09-08T01:21:18.417Z,12.60
2018-09-08T01:23:51.063Z,12.60
2018-09-08T01:26:19.647Z,12.60
2018-09-08T01:28:48.151Z,12.60
2018-09-08T01:31:16.154Z,12.50
2018-09-08T01:33:44.206Z,12.50
2018-09-08T01:36:12.262Z,12.50
2018-09-08T01:38:40.318Z,12.40
2018-09-08T01:41:08.370Z,12.40
2018-09-08T01:43:36.425Z,12.40
2018-09-08T01:46:04.810Z,12.40
2018-09-08T01:48:32.906Z,12.40
2018-09-08T01:51:00.954Z,12.40
2018-09-08T01:53:29.006Z,12.40
2018-09-08T01:55:57.129Z,12.40
2018-09-08T01:58:25.184Z,12.30
2018-09-08T02:00:53.262Z,12.30
2018-09-08T02:03:21.336Z,12.30
2018-09-08T02:05:49.373Z,12.20
2018-09-08T02:08:17.408Z,12.20
2018-09-08T02:10:45.464Z,12.10
2018-09-08T02:13:13.994Z,12.00
2018-09-08T02:15:42.060Z,11.90
2018-09-08T02:18:10.091Z,11.90
2018-09-08T02:20:38.154Z,11.90
2018-09-08T02:23:06.333Z,11.90
2018-09-08T02:25:34.396Z,12.00
2018-09-08T02:28:02.474Z,11.90
2018-09-08T02:30:30.518Z,11.80
2018-09-08T02:32:58.586Z,11.80
2018-09-08T02:35:26.835Z,11.80
2018-09-08T02:37:54.933Z,11.80
2018-09-08T02:40:22.986Z,11.90
2018-09-08T02:42:51.199Z,11.80
2018-09-08T02:45:19.262Z,11.90
2018-09-08T02:47:47.310Z,11.80
2018-09-08T02:50:32.757Z,11.80
2018-09-08T02:53:00.410Z,11.70
2018-09-08T02:55:27.641Z,11.60
2018-09-08T02:57:54.986Z,11.70
2018-09-08T03:00:22.117Z,11.60
2018-09-08T03:02:49.273Z,11.70
2018-09-08T03:05:16.416Z,11.60
2018-09-08T03:07:43.539Z,11.60
2018-09-08T03:10:10.675Z,11.70
2018-09-08T03:12:37.851Z,11.70
2018-09-08T03:15:04.961Z,11.70
2018-09-08T03:17:32.077Z,11.70
2018-09-08T03:19:59.243Z,11.70
2018-09-08T03:22:26.392Z,11.60
2018-09-08T03:24:53.494Z,11.50
2018-09-08T03:27:20.630Z,11.50
2018-09-08T03:29:47.753Z,11.50
2018-09-08T03:32:15.198Z,11.50
2018-09-08T03:34:42.346Z,11.30
2018-09-08T03:37:09.765Z,11.30
2018-09-08T03:39:36.891Z,11.40
2018-09-08T03:42:04.010Z,11.40
2018-09-08T03:44:31.253Z,11.40
2018-09-08T03:46:58.382Z,11.40
2018-09-08T03:49:25.498Z,11.50
2018-09-08T03:51:52.622Z,11.50
2018-09-08T03:54:19.747Z,11.50
2018-09-08T03:56:46.870Z,11.50
2018-09-08T03:59:13.993Z,11.50
2018-09-08T04:01:41.107Z,11.50
2018-09-08T04:04:09.170Z,11.60
2018-09-08T04:06:37.274Z,11.50
2018-09-08T04:09:08.274Z,11.50
2018-09-08T04:11:36.377Z,11.40
2018-09-08T04:14:04.470Z,11.20
2018-09-08T04:16:32.528Z,11.20
2018-09-08T04:19:00.573Z,11.20
2018-09-08T04:21:28.622Z,11.20
2018-09-08T04:23:56.759Z,11.20
2018-09-08T04:26:24.773Z,11.20
2018-09-08T04:28:52.837Z,11.20
2018-09-08T04:31:20.882Z,11.20
2018-09-08T04:33:49.778Z,11.20
2018-09-08T04:36:17.862Z,11.10
2018-09-08T04:38:45.901Z,11.10
2018-09-08T04:41:13.967Z,11.10
2018-09-08T04:43:41.994Z,11.10
2018-09-08T04:46:10.036Z,11.10
2018-09-08T04:48:38.109Z,11.10
2018-09-08T04:51:06.413Z,11.00
2018-09-08T04:53:34.442Z,10.80
2018-09-08T04:56:02.526Z,10.80
2018-09-08T04:58:30.590Z,10.80
2018-09-08T05:00:58.619Z,10.80
2018-09-08T05:03:26.654Z,10.80
2018-09-08T05:05:54.688Z,10.70
2018-09-08T05:08:22.750Z,10.70
2018-09-08T05:10:50.790Z,10.70
2018-09-08T05:13:18.855Z,10.70
2018-09-08T05:15:46.882Z,10.70
2018-09-08T05:18:14.934Z,10.70
2018-09-08T05:20:42.963Z,10.70
2018-09-08T05:23:11.006Z,10.70
2018-09-08T05:25:39.059Z,10.80
2018-09-08T05:28:07.102Z,10.80
2018-09-08T05:30:35.124Z,10.90
2018-09-08T05:33:03.175Z,11.00
2018-09-08T05:35:31.213Z,11.10
2018-09-08T05:37:59.274Z,11.20
2018-09-08T05:40:27.326Z,11.30
2018-09-08T05:42:55.423Z,11.40
2018-09-08T05:45:23.394Z,11.50
2018-09-08T05:47:51.438Z,11.50
2018-09-08T05:50:19.498Z,11.50
2018-09-08T05:52:47.530Z,11.60
2018-09-08T05:55:15.586Z,11.70
2018-09-08T05:57:43.622Z,11.70
2018-09-08T06:00:11.673Z,11.70
2018-09-08T06:02:39.708Z,11.70
2018-09-08T06:05:07.762Z,11.80
2018-09-08T06:07:35.786Z,11.80
2018-09-08T06:10:03.864Z,11.80
2018-09-08T06:12:31.874Z,11.90
2018-09-08T06:14:59.912Z,11.90
2018-09-08T06:17:27.972Z,11.90
2018-09-08T06:19:56.006Z,12.00
2018-09-08T06:22:24.022Z,12.00
2018-09-08T06:24:52.079Z,12.10
2018-09-08T06:27:20.122Z,12.20
2018-09-08T06:29:48.186Z,12.20
2018-09-08T06:32:16.235Z,12.30
2018-09-08T06:34:44.311Z,12.30
2018-09-08T06:37:12.388Z,12.40
2018-09-08T06:39:40.443Z,12.40
2018-09-08T06:42:08.486Z,12.40
2018-09-08T06:44:36.523Z,12.50
2018-09-08T06:47:04.692Z,12.50
2018-09-08T06:49:32.754Z,12.50
2018-09-08T06:52:00.810Z,12.60
2018-09-08T06:54:28.858Z,12.70
2018-09-08T06:56:56.894Z,12.80
2018-09-08T06:59:24.935Z,12.80
2018-09-08T07:01:52.962Z,12.80
2018-09-08T07:04:21.010Z,12.90
2018-09-08T07:06:49.074Z,13.00
2018-09-08T07:09:17.118Z,13.10
2018-09-08T07:11:45.170Z,13.20
2018-09-08T07:14:13.213Z,13.20
2018-09-08T07:16:41.244Z,13.30
2018-09-08T07:19:09.299Z,13.50
2018-09-08T07:21:37.320Z,13.60
2018-09-08T07:24:05.350Z,13.60
2018-09-08T07:26:33.378Z,13.60
2018-09-08T07:29:01.402Z,13.60
2018-09-08T07:31:29.454Z,13.70
2018-09-08T07:33:57.497Z,13.80
2018-09-08T07:36:25.550Z,13.90
2018-09-08T07:38:53.606Z,13.90
2018-09-08T07:41:21.639Z,14.10
2018-09-08T07:43:49.742Z,14.10
2018-09-08T07:46:17.845Z,14.10
2018-09-08T07:48:52.548Z,14.00
2018-09-08T07:51:20.599Z,14.10
2018-09-08T07:53:48.633Z,14.20
2018-09-08T07:56:16.657Z,14.30
2018-09-08T07:58:44.706Z,14.30
2018-09-08T08:01:12.750Z,14.30
2018-09-08T08:03:40.881Z,14.40
2018-09-08T08:06:08.925Z,14.50
2018-09-08T08:08:36.953Z,14.60
2018-09-08T08:11:05.128Z,14.70
2018-09-08T08:13:33.225Z,14.60
2018-09-08T08:16:01.289Z,14.70
2018-09-08T08:18:29.330Z,14.80
2018-09-08T08:20:57.411Z,14.80
2018-09-08T08:23:25.474Z,14.70
2018-09-08T08:25:53.543Z,14.80
2018-09-08T08:28:21.609Z,14.80
2018-09-08T08:30:49.842Z,14.90
2018-09-08T08:33:17.900Z,14.90
2018-09-08T08:35:45.979Z,15.00
2018-09-08T08:38:14.024Z,15.20
2018-09-08T08:40:42.070Z,15.20
2018-09-08T08:43:10.138Z,15.40
2018-09-08T08:45:38.175Z,15.30
2018-09-08T08:48:06.229Z,15.40
2018-09-08T08:50:45.886Z,15.50
2018-09-08T08:53:25.340Z,15.60
2018-09-08T08:55:53.521Z,15.60
2018-09-08T08:58:21.452Z,15.70
2018-09-08T09:00:49.506Z,15.60
2018-09-08T09:03:17.549Z,15.60
2018-09-08T09:05:45.602Z,15.70
2018-09-08T09:08:13.645Z,15.70
2018-09-08T09:10:41.688Z,15.70
2018-09-08T09:13:09.734Z,15.80
2018-09-08T09:15:37.774Z,15.80
2018-09-08T09:18:05.821Z,15.80
2018-09-08T09:20:45.570Z,15.80
2018-09-08T09:23:25.150Z,15.80
2018-09-08T09:25:53.221Z,16.00
2018-09-08T09:28:20.638Z,16.10
2018-09-08T09:30:48.689Z,16.20
2018-09-08T09:33:16.741Z,16.20
2018-09-08T09:35:44.788Z,16.30
2018-09-08T09:38:12.827Z,16.50
2018-09-08T09:40:40.885Z,16.40
2018-09-08T09:43:08.274Z,16.40
2018-09-08T09:45:36.329Z,16.40
2018-09-08T09:48:04.402Z,16.40
2018-09-08T09:50:32.438Z,16.40
2018-09-08T09:53:00.517Z,16.50
2018-09-08T09:55:28.550Z,16.70
2018-09-08T09:57:56.595Z,16.90
2018-09-08T10:00:30.247Z,17.00
2018-09-08T10:03:03.821Z,17.10
2018-09-08T10:05:31.858Z,17.20
2018-09-08T10:07:59.246Z,17.20
2018-09-08T10:10:28.446Z,17.20
2018-09-08T10:12:56.513Z,17.20
2018-09-08T10:15:24.639Z,17.10
2018-09-08T10:17:52.667Z,17.10
2018-09-08T10:20:22.003Z,17.30
2018-09-08T10:22:50.051Z,17.50
2018-09-08T10:25:19.006Z,17.60
2018-09-08T10:27:47.578Z,17.60
2018-09-08T10:30:16.046Z,17.60
2018-09-08T10:32:44.742Z,17.70
2018-09-08T10:35:13.073Z,17.90
2018-09-08T10:37:41.129Z,18.00
2018-09-08T10:40:08.986Z,18.20
2018-09-08T10:42:36.337Z,18.10
2018-09-08T10:45:03.925Z,18.20
2018-09-08T10:47:31.342Z,18.30
2018-09-08T10:49:58.773Z,18.40
2018-09-08T10:52:33.894Z,18.40
2018-09-08T10:55:01.465Z,18.60
2018-09-08T10:57:28.873Z,18.80
2018-09-08T10:59:56.401Z,19.10
2018-09-08T11:02:24.016Z,19.70
2018-09-08T11:04:51.174Z,20.20
2018-09-08T11:07:18.595Z,20.50
2018-09-08T11:09:45.978Z,20.70
2018-09-08T11:12:13.377Z,20.90
2018-09-08T11:14:41.413Z,21.00
2018-09-08T11:17:08.787Z,21.60
2018-09-08T11:19:36.170Z,22.40
2018-09-08T11:22:03.568Z,22.90
2018-09-08T11:24:31.572Z,23.00
2018-09-08T11:26:58.985Z,22.80
2018-09-08T11:29:26.357Z,22.70
2018-09-08T11:31:53.757Z,22.00
2018-09-08T11:34:21.682Z,22.20
2018-09-08T11:36:49.129Z,22.60
2018-09-08T11:39:16.518Z,23.00
2018-09-08T11:41:44.320Z,23.10
2018-09-08T11:44:11.714Z,22.80
2018-09-08T11:46:39.097Z,23.20
2018-09-08T11:49:07.046Z,24.10
2018-09-08T11:51:34.453Z,25.20
2018-09-08T11:54:01.848Z,25.50
2018-09-08T11:56:29.240Z,25.60
2018-09-08T11:58:56.705Z,24.40
2018-09-08T12:01:24.134Z,24.60
2018-09-08T12:06:18.780Z,25.20
2018-09-08T12:08:46.145Z,24.70
2018-09-08T12:11:13.547Z,25.10
2018-09-08T12:13:40.929Z,25.30
2018-09-08T12:16:08.324Z,25.60
2018-09-08T12:18:35.713Z,25.80
2018-09-08T12:21:03.141Z,26.40
2018-09-08T12:23:30.604Z,26.60
2018-09-08T12:25:57.993Z,26.30
2018-09-08T12:28:25.389Z,26.70
2018-09-08T12:30:52.851Z,26.50
2018-09-08T12:33:20.173Z,25.90
2018-09-08T12:35:47.585Z,26.70
2018-09-08T12:38:14.969Z,27.20
2018-09-08T12:40:42.344Z,27.80
2018-09-08T12:43:09.830Z,28.20
2018-09-08T12:45:37.869Z,28.30
2018-09-08T12:48:05.276Z,28.20
2018-09-08T12:50:32.734Z,28.20
2018-09-08T12:53:00.122Z,28.00
2018-09-08T12:55:28.172Z,28.40
2018-09-08T12:57:56.227Z,28.40
2018-09-08T13:00:23.618Z,28.30
2018-09-08T13:02:51.042Z,28.50
2018-09-08T13:05:18.477Z,28.90
2018-09-08T13:07:45.912Z,28.60
2018-09-08T13:10:13.274Z,28.80
2018-09-08T13:12:40.673Z,29.10
2018-09-08T13:15:08.097Z,29.00
2018-09-08T13:17:35.482Z,28.20
2018-09-08T13:20:02.894Z,27.80
2018-09-08T13:22:31.016Z,27.40
2018-09-08T13:24:58.609Z,27.30
2018-09-08T13:27:25.998Z,26.50
2018-09-08T13:29:53.385Z,26.70
2018-09-08T13:32:20.766Z,27.40
2018-09-08T13:34:48.155Z,26.40
2018-09-08T13:37:15.567Z,26.30
2018-09-08T13:39:43.789Z,25.50
2018-09-08T13:42:11.844Z,25.70
2018-09-08T13:44:39.361Z,25.60
2018-09-08T13:47:06.865Z,26.30
2018-09-08T13:49:34.156Z,27.00
2018-09-08T13:52:02.206Z,27.60
2018-09-08T13:54:29.614Z,27.00
2018-09-08T13:56:57.002Z,27.30
2018-09-08T13:59:24.398Z,27.70
2018-09-08T14:01:51.775Z,28.10
2018-09-08T14:04:19.187Z,27.50
2018-09-08T14:06:46.581Z,27.60
2018-09-08T14:09:14.202Z,26.00
2018-09-08T14:11:41.586Z,25.30
2018-09-08T14:14:08.970Z,25.20
2018-09-08T14:16:37.043Z,26.00
2018-09-08T14:19:05.381Z,25.90
2018-09-08T14:21:33.430Z,26.20
2018-09-08T14:24:01.480Z,26.40
2018-09-08T14:26:29.685Z,26.20
2018-09-08T14:28:57.154Z,26.30
2018-09-08T14:31:24.541Z,26.30
2018-09-08T14:33:52.574Z,27.00
2018-09-08T14:36:19.970Z,26.40
2018-09-08T14:38:47.348Z,27.00
2018-09-08T14:41:14.881Z,27.00
2018-09-08T14:43:42.287Z,26.60
2018-09-08T14:46:09.727Z,26.30
2018-09-08T14:48:37.116Z,26.00
2018-09-08T14:51:04.525Z,26.30
2018-09-08T14:53:31.901Z,26.10
2018-09-08T14:55:59.313Z,26.10
2018-09-08T14:58:26.693Z,26.30
2018-09-08T15:00:54.141Z,26.80
2018-09-08T15:03:22.208Z,26.90
2018-09-08T15:05:49.606Z,26.90
2018-09-08T15:08:16.994Z,26.90
2018-09-08T15:10:44.381Z,26.80
2018-09-08T15:13:12.437Z,27.00
2018-09-08T15:15:39.834Z,26.70
2018-09-08T15:18:07.210Z,27.10
2018-09-08T15:20:35.275Z,27.40
2018-09-08T15:23:02.661Z,26.80
2018-09-08T15:25:30.706Z,26.90
2018-09-08T15:27:58.070Z,26.30
2018-09-08T15:30:25.461Z,25.80
2018-09-08T15:32:52.901Z,25.40
2018-09-08T15:35:20.224Z,25.30
2018-09-08T15:37:47.721Z,25.30
2018-09-08T15:40:15.935Z,25.40
2018-09-08T15:42:43.242Z,25.70
2018-09-08T15:45:10.733Z,25.80
2018-09-08T15:47:38.775Z,26.10
2018-09-08T15:50:06.814Z,26.30
2018-09-08T15:52:34.854Z,25.80
2018-09-08T15:55:02.909Z,25.80
2018-09-08T15:57:30.289Z,25.60
2018-09-08T15:59:57.705Z,25.20
2018-09-08T16:02:25.099Z,24.70
2018-09-08T16:04:52.474Z,24.80
2018-09-08T16:07:19.882Z,24.70
2018-09-08T16:09:47.281Z,24.60
2018-09-08T16:12:14.685Z,24.60
2018-09-08T16:14:42.065Z,24.50
2018-09-08T16:17:09.509Z,24.20
2018-09-08T16:19:36.892Z,24.20
2018-09-08T16:22:04.344Z,24.10
2018-09-08T16:24:32.375Z,24.00
2018-09-08T16:26:59.782Z,23.70
2018-09-08T16:29:27.248Z,23.30
2018-09-08T16:31:54.644Z,23.10
2018-09-08T16:34:22.070Z,23.20
2018-09-08T16:36:49.538Z,23.40
2018-09-08T16:39:17.615Z,23.00
2018-09-08T16:41:45.002Z,22.60
2018-09-08T16:44:12.440Z,22.60
2018-09-08T16:46:39.922Z,22.50
2018-09-08T16:49:07.316Z,22.30
2018-09-08T16:51:34.745Z,22.20
2018-09-08T16:54:02.801Z,22.10
2018-09-08T16:56:30.206Z,22.10
2018-09-08T16:58:57.607Z,22.00
2018-09-08T17:01:25.015Z,21.90
2018-09-08T17:03:52.432Z,21.80
2018-09-08T17:06:19.846Z,21.70
2018-09-08T17:08:47.927Z,21.60
2018-09-08T17:11:15.329Z,21.50
2018-09-08T17:13:42.709Z,21.50
2018-09-08T17:16:10.129Z,21.30
2018-09-08T17:18:37.529Z,21.30
2018-09-08T17:21:04.929Z,21.20
2018-09-08T17:23:32.372Z,21.10
2018-09-08T17:25:59.798Z,21.10
2018-09-08T17:28:27.310Z,21.00
2018-09-08T17:30:54.625Z,20.90
2018-09-08T17:33:22.046Z,20.90
2018-09-08T17:35:49.433Z,20.70
2018-09-08T17:38:16.829Z,20.60
2018-09-08T17:40:44.902Z,20.50
2018-09-08T17:43:12.292Z,20.40
2018-09-08T17:45:39.714Z,20.30
2018-09-08T17:48:07.281Z,20.20
2018-09-08T17:50:34.699Z,20.10
2018-09-08T17:53:02.077Z,20.10
2018-09-08T17:55:29.485Z,19.90
2018-09-08T17:57:57.146Z,19.90
2018-09-08T18:00:24.468Z,19.80
2018-09-08T18:02:51.878Z,19.70
2018-09-08T18:05:19.257Z,19.60
2018-09-08T18:07:46.701Z,19.50
2018-09-08T18:10:14.137Z,19.40
2018-09-08T18:12:41.623Z,19.30
2018-09-08T18:15:09.421Z,19.20
2018-09-08T18:17:36.986Z,19.20
2018-09-08T18:20:04.582Z,19.10
2018-09-08T18:22:31.977Z,19.00
2018-09-08T18:24:59.370Z,18.90
2018-09-08T18:27:26.866Z,18.80
2018-09-08T18:29:54.305Z,18.80
2018-09-08T18:32:21.762Z,18.70
2018-09-08T18:34:49.157Z,18.70
2018-09-08T18:37:16.570Z,18.60
2018-09-08T18:39:43.985Z,18.60
2018-09-08T18:42:11.376Z,18.50
2018-09-08T18:44:38.772Z,18.50
2018-09-08T18:47:06.187Z,18.40
2018-09-08T18:49:33.585Z,18.40
2018-09-08T18:52:01.006Z,18.40
2018-09-08T18:54:28.420Z,18.40
2018-09-08T18:56:55.817Z,18.40
2018-09-08T18:59:23.245Z,18.40
2018-09-08T19:01:50.720Z,18.40
2018-09-08T19:04:18.034Z,18.30
2018-09-08T19:06:45.409Z,18.20
2018-09-08T19:09:12.821Z,18.20
2018-09-08T19:11:40.225Z,18.00
2018-09-08T19:14:12.565Z,18.00
2018-09-08T19:16:40.648Z,17.90
2018-09-08T19:19:08.050Z,17.90
2018-09-08T19:21:36.090Z,17.80
2018-09-08T19:24:09.440Z,17.70
2018-09-08T19:26:37.527Z,17.70
2018-09-08T19:29:11.126Z,17.70
2018-09-08T19:31:39.218Z,17.70
2018-09-08T19:34:07.271Z,17.70
2018-09-08T19:36:35.328Z,17.70
2018-09-08T19:39:03.475Z,17.60
2018-09-08T19:41:31.535Z,17.60
2018-09-08T19:43:59.616Z,17.60
2018-09-08T19:46:33.293Z,17.50
2018-09-08T19:49:01.458Z,17.60
2018-09-08T19:51:29.511Z,17.50
2018-09-08T19:53:58.809Z,17.50
2018-09-08T19:56:32.420Z,17.40
2018-09-08T19:59:00.838Z,17.40
2018-09-08T20:01:29.722Z,17.40
2018-09-08T20:03:57.824Z,17.30
2018-09-08T20:06:26.043Z,17.20
2018-09-08T20:08:55.026Z,17.10
2018-09-08T20:11:23.113Z,17.00
2018-09-08T20:13:51.207Z,16.90
2018-09-08T20:16:19.275Z,16.90
2018-09-08T20:18:47.366Z,16.80
2018-09-08T20:21:15.442Z,16.70
2018-09-08T20:23:43.507Z,16.70
2018-09-08T20:26:11.635Z,16.60
2018-09-08T20:28:39.731Z,16.60
2018-09-08T20:31:07.786Z,16.50
2018-09-08T20:33:35.829Z,16.40
2018-09-08T20:36:10.526Z,16.30
2018-09-08T20:38:38.598Z,16.20
2018-09-08T20:41:06.936Z,16.10
2018-09-08T20:43:35.004Z,15.90
2018-09-08T20:46:03.090Z,15.70
2018-09-08T20:48:31.162Z,15.70
2018-09-08T20:50:59.244Z,15.70
2018-09-08T20:53:27.311Z,15.60
2018-09-08T20:55:55.390Z,15.60
2018-09-08T20:58:23.434Z,15.60
2018-09-08T21:00:51.539Z,15.60
2018-09-08T21:03:19.610Z,15.60
2018-09-08T21:05:47.659Z,15.60
2018-09-08T21:08:15.718Z,15.50
2018-09-08T21:10:43.806Z,15.50
2018-09-08T21:13:11.942Z,15.50
2018-09-08T21:15:39.942Z,15.50
2018-09-08T21:18:08.013Z,15.40
2018-09-08T21:20:36.084Z,15.30
2018-09-08T21:23:04.165Z,15.30
2018-09-08T21:25:32.246Z,15.30
2018-09-08T21:28:00.318Z,15.30
2018-09-08T21:30:28.387Z,15.30
2018-09-08T21:32:56.458Z,15.20
2018-09-08T21:35:24.518Z,15.20
2018-09-08T21:37:52.579Z,15.20
2018-09-08T21:40:20.615Z,15.20
2018-09-08T21:42:48.671Z,15.00
2018-09-08T21:45:16.709Z,15.00
2018-09-08T21:47:44.776Z,14.90
2018-09-08T21:50:12.826Z,14.90
2018-09-08T21:52:40.901Z,14.90
2018-09-08T21:55:08.951Z,14.80
2018-09-08T21:57:37.065Z,14.70
2018-09-08T22:00:05.874Z,14.70
2018-09-08T22:02:33.934Z,14.80
2018-09-08T22:05:02.005Z,14.80
2018-09-08T22:07:30.069Z,14.60
2018-09-08T22:09:58.119Z,14.50
2018-09-08T22:12:26.163Z,14.40
2018-09-08T22:14:54.231Z,14.40
2018-09-08T22:17:22.283Z,14.30
2018-09-08T22:19:50.366Z,14.30
2018-09-08T22:22:18.406Z,14.40
2018-09-08T22:24:46.458Z,14.50
2018-09-08T22:27:14.526Z,14.50
2018-09-08T22:29:42.566Z,14.50
2018-09-08T22:32:10.638Z,14.50
2018-09-08T22:34:38.689Z,14.40
2018-09-08T22:37:06.806Z,14.30
2018-09-08T22:39:34.907Z,14.30
2018-09-08T22:42:03.006Z,14.30
2018-09-08T22:44:31.045Z,14.30
2018-09-08T22:46:59.097Z,14.20
2018-09-08T22:49:27.164Z,14.20
2018-09-08T22:51:55.268Z,14.10
2018-09-08T22:54:23.370Z,14.00
2018-09-08T22:56:51.487Z,13.90
2018-09-08T22:59:19.498Z,13.80
2018-09-08T23:01:47.577Z,13.60
2018-09-08T23:04:15.670Z,13.60
2018-09-08T23:06:43.753Z,13.70
2018-09-08T23:09:11.815Z,13.60
2018-09-08T23:11:39.878Z,13.50
2018-09-08T23:14:08.154Z,13.40
2018-09-08T23:16:36.219Z,13.40
2018-09-08T23:19:04.286Z,13.30
2018-09-08T23:21:32.340Z,13.40
2018-09-08T23:24:00.413Z,13.50
2018-09-08T23:26:28.497Z,13.40
2018-09-08T23:28:56.550Z,13.30
2018-09-08T23:31:24.613Z,13.20
2018-09-08T23:33:52.669Z,13.10
2018-09-08T23:36:20.719Z,13.00
2018-09-08T23:38:48.786Z,13.10
2018-09-08T23:41:16.865Z,13.10
2018-09-08T23:43:44.905Z,13.20
2018-09-08T23:46:12.994Z,13.20
2018-09-08T23:48:41.033Z,13.10
2018-09-08T23:51:09.083Z,13.10
2018-09-08T23:53:37.437Z,13.20
2018-09-08T23:56:05.513Z,13.20
2018-09-08T23:58:33.548Z,13.20
